Time;durP1;ratioP1;P1;durP2;ratioP2;P2;SDS_P1;SDS_P2;PMS_P1;PMS_P2;Temp;Humidity;BMP_temperature;BMP_pressure;BME280_temperature;BME280_humidity;BME280_pressure;Samples;Min_cycle;Max_cycle;Signal;HPM_P1;HPM_P2
2022/03/12 00:01:00;;;;;;;21.33;13.57;;;;;;;;;;6194073;23;20157;-85
2022/03/12 00:03:26;;;;;;;18.27;12.97;;;;;;;;;;6194398;23;20167;-84
2022/03/12 00:05:54;;;;;;;18.67;13.20;;;;;;;;;;6192053;23;20162;-85
2022/03/12 00:08:41;;;;;;;16.77;12.53;;;;;;;;;;6192940;23;20226;-85
2022/03/12 00:11:08;;;;;;;17.00;12.50;;;;;;;;;;6191304;23;20476;-84
2022/03/12 00:13:34;;;;;;;15.27;12.37;;;;;;;;;;6192632;23;20182;-84
2022/03/12 00:16:00;;;;;;;20.07;13.73;;;;;;;;;;6192409;23;20535;-84
2022/03/12 00:18:29;;;;;;;16.97;12.30;;;;;;;;;;6193033;23;20198;-85
2022/03/12 00:20:56;;;;;;;18.67;13.70;;;;;;;;;;6193318;23;20570;-84
2022/03/12 00:23:22;;;;;;;19.27;14.57;;;;;;;;;;6193765;23;20147;-84
2022/03/12 00:25:49;;;;;;;18.23;13.70;;;;;;;;;;6192905;23;20538;-84
2022/03/12 00:28:18;;;;;;;17.73;12.87;;;;;;;;;;6191093;23;20201;-84
2022/03/12 00:30:45;;;;;;;19.67;13.87;;;;;;;;;;6191478;23;20189;-84
2022/03/12 00:33:11;;;;;;;17.93;13.97;;;;;;;;;;6192812;23;20176;-84
2022/03/12 00:35:37;;;;;;;17.07;13.23;;;;;;;;;;6193342;23;20146;-84
2022/03/12 00:38:04;;;;;;;19.07;14.20;;;;;;;;;;6191833;23;20176;-84
2022/03/12 00:40:30;;;;;;;20.20;14.70;;;;;;;;;;6193346;23;20147;-84
2022/03/12 00:42:56;;;;;;;22.47;15.23;;;;;;;;;;6193200;23;20154;-84
2022/03/12 00:45:22;;;;;;;18.73;14.10;;;;;;;;;;6193412;23;20156;-84
2022/03/12 00:47:50;;;;;;;21.37;14.60;;;;;;;;;;6192595;23;20221;-84
2022/03/12 00:50:16;;;;;;;20.43;14.73;;;;;;;;;;6194546;23;20234;-84
2022/03/12 00:52:43;;;;;;;23.10;14.93;;;;;;;;;;6196759;23;20220;-84
2022/03/12 00:55:09;;;;;;;17.67;14.20;;;;;;;;;;6195536;23;20498;-84
2022/03/12 00:57:35;;;;;;;21.07;14.83;;;;;;;;;;6213337;23;20182;-85
2022/03/12 01:00:01;;;;;;;21.37;14.37;;;;;;;;;;6226647;23;20150;-84
2022/03/12 01:02:27;;;;;;;16.00;13.53;;;;;;;;;;6223821;23;20176;-84
2022/03/12 01:04:54;;;;;;;18.83;14.73;;;;;;;;;;6197222;23;20150;-84
2022/03/12 01:07:20;;;;;;;18.97;13.93;;;;;;;;;;6195762;23;20171;-84
2022/03/12 01:09:46;;;;;;;20.10;14.53;;;;;;;;;;6223315;23;20229;-85
2022/03/12 01:12:13;;;;;;;21.30;14.77;;;;;;;;;;6196559;23;20236;-84
2022/03/12 01:14:39;;;;;;;18.57;14.37;;;;;;;;;;6222800;23;20146;-85
2022/03/12 01:17:05;;;;;;;19.47;14.27;;;;;;;;;;6191184;23;20722;-82
2022/03/12 01:20:09;;;;;;;20.17;13.93;;;;;;;;;;6190854;23;20177;-82
2022/03/12 01:22:36;;;;;;;25.17;14.27;;;;;;;;;;6189870;23;20519;-82
2022/03/12 01:25:06;;;;;;;17.07;13.67;;;;;;;;;;6192632;23;20159;-82
2022/03/12 01:27:47;;;;;;;22.80;13.47;;;;;;;;;;6191885;23;20246;-82
2022/03/12 01:30:54;;;;;;;21.40;13.97;;;;;;;;;;6189401;23;20205;-82
2022/03/12 01:33:35;;;;;;;19.97;12.93;;;;;;;;;;6116696;23;20269;-82
2022/03/12 01:36:01;;;;;;;18.03;13.43;;;;;;;;;;6188387;23;20142;-81
2022/03/12 01:38:32;;;;;;;20.13;13.13;;;;;;;;;;6165856;23;20178;-82
2022/03/12 01:41:26;;;;;;;18.47;13.03;;;;;;;;;;6191172;23;20143;-79
2022/03/12 01:47:06;;;;;;;20.50;12.80;;;;;;;;;;6190247;23;20257;-80
2022/03/12 01:49:35;;;;;;;14.07;12.63;;;;;;;;;;6189194;23;20607;-82
2022/03/12 01:52:14;;;;;;;17.73;13.77;;;;;;;;;;6187413;23;20182;-82
2022/03/12 01:54:46;;;;;;;15.87;13.00;;;;;;;;;;6190131;23;20468;-82
2022/03/12 01:57:12;;;;;;;23.23;13.53;;;;;;;;;;6198899;22;20224;-82
2022/03/12 01:59:39;;;;;;;18.37;13.33;;;;;;;;;;6220270;23;20149;-81
2022/03/12 02:02:17;;;;;;;21.83;14.00;;;;;;;;;;6220108;23;20203;-80
2022/03/12 02:05:20;;;;;;;20.90;13.77;;;;;;;;;;6220973;23;20237;-78
2022/03/12 02:07:49;;;;;;;18.47;13.07;;;;;;;;;;6218582;23;20176;-81
2022/03/12 02:10:18;;;;;;;15.67;12.47;;;;;;;;;;6194089;23;20170;-81
2022/03/12 02:12:47;;;;;;;19.57;13.93;;;;;;;;;;6219666;23;20252;-78
2022/03/12 02:15:22;;;;;;;22.10;13.50;;;;;;;;;;6219681;23;20591;-78
2022/03/12 02:17:53;;;;;;;20.60;13.20;;;;;;;;;;6210566;23;20205;-82
2022/03/12 02:20:22;;;;;;;20.33;13.30;;;;;;;;;;6220069;23;20126;-82
2022/03/12 02:22:53;;;;;;;17.60;13.17;;;;;;;;;;6221433;23;20160;-82
2022/03/12 02:25:29;;;;;;;18.50;13.43;;;;;;;;;;6220817;23;20154;-82
2022/03/12 02:28:01;;;;;;;19.27;13.73;;;;;;;;;;6221356;23;20258;-82
2022/03/12 02:31:05;;;;;;;23.70;13.80;;;;;;;;;;6220519;23;20573;-82
2022/03/12 02:33:40;;;;;;;18.63;14.33;;;;;;;;;;6220381;23;20177;-82
2022/03/12 02:36:13;;;;;;;18.90;14.23;;;;;;;;;;6229301;23;20149;-82
2022/03/12 02:45:11;;;;;;;21.63;14.30;;;;;;;;;;6220147;23;20148;-82
2022/03/12 02:47:44;;;;;;;20.67;13.90;;;;;;;;;;6193408;23;20669;-82
2022/03/12 02:50:12;;;;;;;21.20;14.87;;;;;;;;;;6194648;23;20142;-82
2022/03/12 02:52:54;;;;;;;20.63;14.70;;;;;;;;;;6217698;23;20178;-81
2022/03/12 02:55:22;;;;;;;20.33;14.20;;;;;;;;;;6219801;23;20149;-82
2022/03/12 02:57:49;;;;;;;21.77;14.40;;;;;;;;;;6222385;23;20630;-82
2022/03/12 03:00:21;;;;;;;21.60;14.80;;;;;;;;;;6220375;23;20146;-82
2022/03/12 03:02:52;;;;;;;20.87;14.33;;;;;;;;;;6193645;23;20154;-82
2022/03/12 03:08:00;;;;;;;17.60;13.93;;;;;;;;;;6222760;23;20233;-81
2022/03/12 03:10:31;;;;;;;23.33;13.23;;;;;;;;;;6223554;23;20161;-81
2022/03/12 03:12:58;;;;;;;22.53;14.50;;;;;;;;;;6194144;23;20669;-81
2022/03/12 03:15:25;;;;;;;21.90;14.13;;;;;;;;;;6219659;23;20170;-81
2022/03/12 03:17:51;;;;;;;25.83;14.17;;;;;;;;;;6218241;23;20557;-80
2022/03/12 03:20:17;;;;;;;18.33;13.90;;;;;;;;;;6218830;23;20149;-81
2022/03/12 03:22:43;;;;;;;21.57;14.93;;;;;;;;;;6218174;23;20146;-81
2022/03/12 03:25:09;;;;;;;18.43;14.30;;;;;;;;;;6194995;23;20606;-81
2022/03/12 03:27:35;;;;;;;20.93;13.93;;;;;;;;;;6223158;23;20192;-80
2022/03/12 03:30:01;;;;;;;22.20;14.53;;;;;;;;;;6196228;23;20153;-81
2022/03/12 03:32:27;;;;;;;22.60;14.47;;;;;;;;;;6194738;23;20631;-81
2022/03/12 03:34:53;;;;;;;20.17;14.37;;;;;;;;;;6222355;23;20149;-81
2022/03/12 03:37:19;;;;;;;20.07;14.30;;;;;;;;;;6222734;23;20165;-81
2022/03/12 03:39:45;;;;;;;20.17;15.53;;;;;;;;;;6195983;23;20153;-80
2022/03/12 03:42:19;;;;;;;21.87;15.43;;;;;;;;;;6222151;23;20157;-81
2022/03/12 03:44:45;;;;;;;22.50;15.00;;;;;;;;;;6222991;23;20141;-81
2022/03/12 03:47:11;;;;;;;21.20;14.73;;;;;;;;;;6222363;23;20184;-81
2022/03/12 03:49:37;;;;;;;20.60;14.20;;;;;;;;;;6222542;23;20517;-80
2022/03/12 03:52:03;;;;;;;20.30;14.57;;;;;;;;;;6222433;23;20220;-81
2022/03/12 03:54:31;;;;;;;22.13;14.17;;;;;;;;;;6222556;23;20229;-81
2022/03/12 03:56:57;;;;;;;20.10;14.73;;;;;;;;;;6221500;23;20170;-81
2022/03/12 03:59:23;;;;;;;19.83;14.57;;;;;;;;;;6221395;23;20479;-80
2022/03/12 04:01:50;;;;;;;21.03;14.50;;;;;;;;;;6222795;23;20170;-81
2022/03/12 04:04:18;;;;;;;19.07;14.00;;;;;;;;;;6223380;23;20201;-80
2022/03/12 04:06:44;;;;;;;22.17;14.50;;;;;;;;;;6221645;23;20161;-81
2022/03/12 04:09:10;;;;;;;22.30;14.70;;;;;;;;;;6194962;23;20157;-81
2022/03/12 04:11:38;;;;;;;22.37;14.87;;;;;;;;;;6221850;23;20149;-81
2022/03/12 04:14:05;;;;;;;18.17;14.73;;;;;;;;;;6221855;23;20241;-81
2022/03/12 04:16:33;;;;;;;20.50;14.67;;;;;;;;;;6222653;23;20153;-81
2022/03/12 04:18:59;;;;;;;20.30;14.60;;;;;;;;;;6221427;23;20674;-80
2022/03/12 04:21:25;;;;;;;20.13;14.60;;;;;;;;;;6222025;23;20481;-81
2022/03/12 04:23:51;;;;;;;23.03;14.10;;;;;;;;;;6221316;23;20153;-81
2022/03/12 04:26:17;;;;;;;21.67;14.73;;;;;;;;;;6221950;23;20154;-81
2022/03/12 04:28:43;;;;;;;22.80;15.57;;;;;;;;;;6221622;23;20146;-81
2022/03/12 04:31:09;;;;;;;19.43;14.90;;;;;;;;;;6221421;23;20171;-81
2022/03/12 04:33:38;;;;;;;21.40;14.67;;;;;;;;;;6193404;23;20623;-80
2022/03/12 04:36:04;;;;;;;20.23;13.70;;;;;;;;;;6221500;23;20146;-81
2022/03/12 04:38:30;;;;;;;18.67;14.33;;;;;;;;;;6196497;23;20232;-81
2022/03/12 04:40:57;;;;;;;19.10;13.60;;;;;;;;;;6223441;23;20215;-81
2022/03/12 04:43:24;;;;;;;22.60;14.33;;;;;;;;;;6222729;23;20490;-81
2022/03/12 04:45:51;;;;;;;22.03;14.67;;;;;;;;;;6222073;23;20164;-81
2022/03/12 04:48:18;;;;;;;19.13;14.00;;;;;;;;;;6195520;23;20184;-81
2022/03/12 04:50:44;;;;;;;21.63;14.90;;;;;;;;;;6222064;23;20149;-80
2022/03/12 04:53:11;;;;;;;20.43;14.90;;;;;;;;;;6194584;23;20185;-81
2022/03/12 04:55:37;;;;;;;17.40;13.53;;;;;;;;;;6221984;23;20148;-80
2022/03/12 04:58:07;;;;;;;18.63;12.97;;;;;;;;;;6221732;23;20239;-81
2022/03/12 05:00:38;;;;;;;19.47;13.53;;;;;;;;;;6220918;23;20162;-80
2022/03/12 05:03:11;;;;;;;21.40;14.30;;;;;;;;;;6222043;23;20213;-81
2022/03/12 05:05:40;;;;;;;17.93;13.07;;;;;;;;;;6221395;23;20486;-80
2022/03/12 05:08:08;;;;;;;15.77;13.00;;;;;;;;;;6219906;23;20178;-80
2022/03/12 05:10:34;;;;;;;18.50;13.07;;;;;;;;;;6218868;23;20154;-80
2022/03/12 05:13:00;;;;;;;16.70;12.90;;;;;;;;;;6222298;23;20264;-81
2022/03/12 05:15:28;;;;;;;20.67;14.60;;;;;;;;;;6220032;23;20647;-80
2022/03/12 05:17:56;;;;;;;19.27;13.87;;;;;;;;;;6220987;23;20192;-81
2022/03/12 05:20:26;;;;;;;20.67;13.93;;;;;;;;;;6221267;23;20145;-81
2022/03/12 05:22:52;;;;;;;20.20;14.33;;;;;;;;;;6221283;23;20150;-80
2022/03/12 05:25:19;;;;;;;22.70;15.27;;;;;;;;;;6221501;23;20224;-81
2022/03/12 05:27:51;;;;;;;19.83;14.43;;;;;;;;;;6223111;23;20634;-81
2022/03/12 05:30:17;;;;;;;19.63;14.70;;;;;;;;;;6221348;23;20132;-81
2022/03/12 05:32:43;;;;;;;19.97;14.10;;;;;;;;;;6221297;23;20196;-81
2022/03/12 05:35:09;;;;;;;19.93;14.50;;;;;;;;;;6220770;23;20482;-81
2022/03/12 05:37:40;;;;;;;19.63;14.13;;;;;;;;;;6221308;23;20726;-80
2022/03/12 05:40:09;;;;;;;22.40;14.13;;;;;;;;;;6221741;23;20217;-81
2022/03/12 05:42:35;;;;;;;20.00;14.43;;;;;;;;;;6220186;23;20235;-81
2022/03/12 05:45:08;;;;;;;19.20;14.50;;;;;;;;;;6220999;23;20160;-81
2022/03/12 05:47:34;;;;;;;18.70;13.90;;;;;;;;;;6220257;23;20682;-81
2022/03/12 05:50:01;;;;;;;21.17;14.43;;;;;;;;;;6221416;23;20177;-81
2022/03/12 05:52:27;;;;;;;20.30;14.30;;;;;;;;;;6221303;23;20172;-80
2022/03/12 05:54:53;;;;;;;24.40;15.27;;;;;;;;;;6221199;23;20233;-81
2022/03/12 05:57:19;;;;;;;25.00;15.07;;;;;;;;;;6220956;23;20162;-81
2022/03/12 05:59:45;;;;;;;20.17;14.63;;;;;;;;;;6221303;23;20157;-81
2022/03/12 06:02:11;;;;;;;18.20;13.70;;;;;;;;;;6221455;23;20465;-80
2022/03/12 06:04:37;;;;;;;15.23;13.03;;;;;;;;;;6220596;23;20153;-81
2022/03/12 06:07:03;;;;;;;17.37;12.73;;;;;;;;;;6221270;23;20169;-81
2022/03/12 06:09:29;;;;;;;23.57;13.03;;;;;;;;;;6221795;23;20157;-80
2022/03/12 06:11:58;;;;;;;19.33;13.53;;;;;;;;;;6220976;23;20607;-81
2022/03/12 06:14:24;;;;;;;20.23;14.00;;;;;;;;;;6221361;23;20207;-80
2022/03/12 06:16:51;;;;;;;20.70;13.60;;;;;;;;;;6220634;23;20170;-80
2022/03/12 06:19:19;;;;;;;17.23;13.30;;;;;;;;;;6193277;23;20153;-81
2022/03/12 06:21:45;;;;;;;16.57;13.13;;;;;;;;;;6232964;23;20146;-80
2022/03/12 06:24:11;;;;;;;18.00;12.63;;;;;;;;;;6233221;23;20153;-80
2022/03/12 06:26:39;;;;;;;17.53;13.37;;;;;;;;;;6197011;23;20153;-81
2022/03/12 06:29:11;;;;;;;21.70;14.53;;;;;;;;;;6216933;23;20228;-81
2022/03/12 06:31:38;;;;;;;21.23;14.50;;;;;;;;;;6216364;23;20130;-81
2022/03/12 06:34:05;;;;;;;17.43;13.20;;;;;;;;;;6216192;23;20156;-81
2022/03/12 06:36:31;;;;;;;17.07;13.87;;;;;;;;;;6216760;23;20165;-81
2022/03/12 06:38:57;;;;;;;16.87;12.80;;;;;;;;;;6219059;23;20153;-80
2022/03/12 06:41:23;;;;;;;18.90;13.33;;;;;;;;;;6218349;23;20153;-81
2022/03/12 06:43:52;;;;;;;21.10;13.50;;;;;;;;;;6217340;23;20162;-80
2022/03/12 06:46:19;;;;;;;19.73;13.30;;;;;;;;;;6217723;23;20160;-81
2022/03/12 06:48:45;;;;;;;22.33;14.03;;;;;;;;;;6217474;23;20468;-80
2022/03/12 06:51:11;;;;;;;19.67;13.80;;;;;;;;;;6218356;23;20538;-81
2022/03/12 06:53:38;;;;;;;20.60;14.67;;;;;;;;;;6192211;23;20185;-80
2022/03/12 06:56:05;;;;;;;21.00;14.10;;;;;;;;;;6217069;23;20148;-80
2022/03/12 06:58:31;;;;;;;20.13;13.63;;;;;;;;;;6215761;23;20201;-80
2022/03/12 07:00:57;;;;;;;23.00;13.67;;;;;;;;;;6215444;23;20157;-81
2022/03/12 07:03:24;;;;;;;17.07;13.60;;;;;;;;;;6192505;23;20173;-80
2022/03/12 07:05:51;;;;;;;21.83;12.97;;;;;;;;;;6220934;23;20149;-81
2022/03/12 07:08:19;;;;;;;19.17;14.00;;;;;;;;;;6219248;23;20176;-81
2022/03/12 07:10:45;;;;;;;16.50;12.27;;;;;;;;;;6219928;23;20599;-81
2022/03/12 07:13:11;;;;;;;18.17;12.40;;;;;;;;;;6218880;23;20173;-81
2022/03/12 07:15:37;;;;;;;18.10;13.17;;;;;;;;;;6191392;23;20495;-80
2022/03/12 07:18:44;;;;;;;;;;;;;;;;;;;;;
2022/03/12 07:21:38;;;;;;;18.70;13.30;;;;;;;;;;6193644;23;20198;-85
2022/03/12 07:28:00;;;;;;;16.27;13.30;;;;;;;;;;6102280;23;20228;-86
2022/03/12 07:31:01;;;;;;;17.67;13.20;;;;;;;;;;6102014;23;20157;-86
2022/03/12 07:41:53;;;;;;;17.97;14.30;;;;;;;;;;6226670;23;20274;-85
2022/03/12 07:44:58;;;;;;;21.40;13.93;;;;;;;;;;6224505;23;20177;-85
2022/03/12 07:51:06;;;;;;;;;;;;;;;;;;;;;
2022/03/12 07:57:15;;;;;;;23.00;14.60;;;;;;;;;;6222843;23;20157;-86
2022/03/12 08:00:02;;;;;;;25.23;14.83;;;;;;;;;;6224779;23;20130;-85
2022/03/12 08:02:57;;;;;;;24.70;15.90;;;;;;;;;;6224366;23;20146;-85
2022/03/12 08:05:25;;;;;;;21.33;14.47;;;;;;;;;;6224606;23;20149;-86
2022/03/12 08:11:41;;;;;;;21.13;14.73;;;;;;;;;;6076943;23;20153;-86
2022/03/12 08:17:15;;;;;;;24.77;15.83;;;;;;;;;;6046234;23;20158;-86
2022/03/12 08:19:41;;;;;;;23.50;15.73;;;;;;;;;;6025101;23;20157;-84
2022/03/12 08:22:18;;;;;;;22.90;16.17;;;;;;;;;;6136678;23;20168;-84
2022/03/12 08:25:29;;;;;;;22.13;15.43;;;;;;;;;;6194074;23;20135;-85
2022/03/12 08:27:37;;;;;;;22.07;15.53;;;;;;;;;;6193305;23;20201;-85
2022/03/12 08:30:07;;;;;;;18.60;14.47;;;;;;;;;;6201380;23;20154;-85
2022/03/12 08:32:35;;;;;;;17.70;14.47;;;;;;;;;;6226668;23;20474;-85
2022/03/12 08:35:01;;;;;;;21.47;14.70;;;;;;;;;;6200959;23;20150;-85
2022/03/12 08:37:29;;;;;;;21.33;15.27;;;;;;;;;;6228145;23;20170;-84
2022/03/12 08:39:55;;;;;;;29.67;15.90;;;;;;;;;;6227571;23;20153;-85
2022/03/12 08:42:24;;;;;;;21.03;15.60;;;;;;;;;;6227141;23;20192;-84
2022/03/12 08:44:51;;;;;;;21.63;15.40;;;;;;;;;;6226233;23;20138;-84
2022/03/12 08:47:17;;;;;;;21.63;15.53;;;;;;;;;;6225983;23;20261;-84
2022/03/12 08:49:43;;;;;;;23.43;15.10;;;;;;;;;;6225175;23;20157;-83
2022/03/12 08:52:09;;;;;;;19.67;13.27;;;;;;;;;;6226250;23;20176;-84
2022/03/12 08:54:35;;;;;;;20.90;14.20;;;;;;;;;;6225758;23;20151;-83
2022/03/12 08:57:02;;;;;;;18.57;13.50;;;;;;;;;;6197587;23;20154;-84
2022/03/12 08:59:28;;;;;;;20.73;13.37;;;;;;;;;;6222863;23;20150;-83
2022/03/12 09:01:54;;;;;;;17.17;13.20;;;;;;;;;;6224853;23;20168;-84
2022/03/12 09:04:20;;;;;;;21.03;13.87;;;;;;;;;;6224144;23;20142;-84
2022/03/12 09:06:47;;;;;;;18.43;13.83;;;;;;;;;;6196952;23;20158;-83
2022/03/12 09:09:14;;;;;;;20.90;13.83;;;;;;;;;;6220048;23;20224;-83
2022/03/12 09:11:40;;;;;;;17.10;13.30;;;;;;;;;;6223074;23;20658;-84
2022/03/12 09:14:06;;;;;;;18.27;13.17;;;;;;;;;;6222133;23;20163;-85
2022/03/12 09:16:32;;;;;;;16.87;13.57;;;;;;;;;;6196313;23;20150;-85
2022/03/12 09:41:44;;;;;;;15.90;13.10;;;;;;;;;;6066518;23;20159;-84
2022/03/12 09:44:47;;;;;;;;;;;;;;;;;;;;;
2022/03/12 09:47:29;;;;;;;17.60;13.23;;;;;;;;;;6073821;23;20202;-85
2022/03/12 10:04:48;;;;;;;21.30;13.57;;;;;;;;;;6234880;22;20226;-84
2022/03/12 10:39:45;;;;;;;22.90;14.60;;;;;;;;;;6196194;23;20580;-85
2022/03/12 10:42:37;;;;;;;19.93;14.50;;;;;;;;;;6193010;23;20232;-85
2022/03/12 10:58:28;;;;;;;20.23;14.70;;;;;;;;;;6190462;23;20562;-85
2022/03/12 11:07:45;;;;;;;26.90;15.07;;;;;;;;;;5961677;24;20187;-86
2022/03/12 11:10:50;;;;;;;;;;;;;;;;;;;;;
2022/03/12 11:26:06;;;;;;;16.87;13.47;;;;;;;;;;5989404;23;20162;-86
2022/03/12 11:37:56;;;;;;;17.23;12.57;;;;;;;;;;6047852;23;20281;-85
2022/03/12 11:40:58;;;;;;;14.37;12.00;;;;;;;;;;6159607;23;20483;-84
2022/03/12 11:43:52;;;;;;;16.33;13.13;;;;;;;;;;6167281;23;20181;-84
2022/03/12 11:46:48;;;;;;;19.40;13.10;;;;;;;;;;6162570;23;20160;-85
2022/03/12 11:49:24;;;;;;;20.67;13.13;;;;;;;;;;6112359;23;20629;-86
2022/03/12 11:52:00;;;;;;;20.27;13.30;;;;;;;;;;6165648;23;20151;-85
2022/03/12 11:57:42;;;;;;;;;;;;;;;;;;;;;
2022/03/12 12:00:32;;;;;;;16.43;12.77;;;;;;;;;;6166028;23;20174;-86
2022/03/12 12:03:16;;;;;;;18.67;13.77;;;;;;;;;;6165370;23;20543;-86
2022/03/12 12:05:56;;;;;;;17.87;12.63;;;;;;;;;;6166720;23;20162;-86
2022/03/12 12:08:29;;;;;;;18.50;13.40;;;;;;;;;;6165592;23;20222;-85
2022/03/12 12:11:19;;;;;;;20.17;13.57;;;;;;;;;;6166889;23;20144;-86
2022/03/12 12:14:08;;;;;;;17.40;13.93;;;;;;;;;;6166652;23;20191;-84
2022/03/12 12:16:58;;;;;;;17.63;13.13;;;;;;;;;;6164522;23;20612;-85
2022/03/12 12:19:30;;;;;;;17.37;13.47;;;;;;;;;;6164495;23;20147;-85
2022/03/12 12:22:14;;;;;;;18.33;13.67;;;;;;;;;;6166382;23;20167;-84
2022/03/12 12:25:01;;;;;;;18.80;14.10;;;;;;;;;;6164419;23;20159;-85
2022/03/12 12:27:50;;;;;;;16.63;13.37;;;;;;;;;;6169135;23;20194;-83
2022/03/12 12:30:45;;;;;;;15.93;13.47;;;;;;;;;;6116098;23;20152;-83
2022/03/12 12:33:38;;;;;;;19.77;13.30;;;;;;;;;;6134202;23;20175;-84
2022/03/12 12:39:44;;;;;;;18.17;13.77;;;;;;;;;;6046650;23;20163;-84
2022/03/12 12:42:18;;;;;;;18.60;14.27;;;;;;;;;;6042789;23;20157;-85
2022/03/12 12:48:26;;;;;;;15.90;13.20;;;;;;;;;;6076141;23;20196;-85
2022/03/12 12:51:20;;;;;;;17.53;13.47;;;;;;;;;;6121715;23;20592;-85
2022/03/12 12:54:34;;;;;;;;;;;;;;;;;;;;;
2022/03/12 12:57:13;;;;;;;18.77;13.40;;;;;;;;;;6112166;22;20164;-85
2022/03/12 12:59:51;;;;;;;23.30;14.50;;;;;;;;;;6195237;23;20189;-84
2022/03/12 13:11:39;;;;;;;19.50;14.17;;;;;;;;;;6165430;23;20142;-85
2022/03/12 13:14:31;;;;;;;18.17;13.63;;;;;;;;;;6164465;23;20293;-85
2022/03/12 13:17:34;;;;;;;18.50;14.80;;;;;;;;;;6188344;23;20596;-85
2022/03/12 13:20:01;;;;;;;17.00;13.90;;;;;;;;;;6183759;23;20224;-86
2022/03/12 13:22:36;;;;;;;17.63;14.10;;;;;;;;;;6197485;23;20218;-86
2022/03/12 13:25:04;;;;;;;20.33;14.87;;;;;;;;;;6197483;23;20499;-86
2022/03/12 13:27:32;;;;;;;17.87;14.13;;;;;;;;;;6190507;23;20164;-86
2022/03/12 13:30:25;;;;;;;20.30;13.60;;;;;;;;;;6192128;23;20484;-87
2022/03/12 13:32:53;;;;;;;18.53;13.00;;;;;;;;;;6189536;23;20183;-86
2022/03/12 13:35:24;;;;;;;16.27;13.40;;;;;;;;;;6192352;23;20155;-87
2022/03/12 13:37:50;;;;;;;16.27;13.57;;;;;;;;;;6191458;23;20214;-86
2022/03/12 13:40:20;;;;;;;19.00;13.70;;;;;;;;;;6190494;23;20170;-86
2022/03/12 13:42:47;;;;;;;19.60;13.77;;;;;;;;;;6191870;23;20158;-87
2022/03/12 13:45:14;;;;;;;17.40;14.20;;;;;;;;;;6196844;23;20156;-87
2022/03/12 13:47:40;;;;;;;16.70;14.07;;;;;;;;;;6198349;23;20200;-87
2022/03/12 13:50:07;;;;;;;19.87;14.43;;;;;;;;;;6194757;23;20638;-87
2022/03/12 13:52:34;;;;;;;18.07;13.70;;;;;;;;;;6194278;23;20233;-87
2022/03/12 13:55:00;;;;;;;17.43;13.73;;;;;;;;;;6193423;23;20158;-87
2022/03/12 13:57:32;;;;;;;18.13;14.53;;;;;;;;;;6193105;23;20653;-87
2022/03/12 14:00:05;;;;;;;15.40;13.03;;;;;;;;;;6193233;23;20171;-87
2022/03/12 14:02:32;;;;;;;17.53;13.37;;;;;;;;;;6190032;23;20158;-87
2022/03/12 14:04:59;;;;;;;22.57;14.73;;;;;;;;;;6192888;23;20154;-87
2022/03/12 14:07:25;;;;;;;49.63;26.53;;;;;;;;;;6193778;23;20146;-87
2022/03/12 14:09:52;;;;;;;18.27;15.60;;;;;;;;;;6197119;23;20228;-86
2022/03/12 14:12:24;;;;;;;19.50;15.30;;;;;;;;;;6198555;23;20173;-87
2022/03/12 14:14:50;;;;;;;19.17;15.40;;;;;;;;;;6194640;23;20150;-87
2022/03/12 14:17:26;;;;;;;20.27;13.97;;;;;;;;;;6193992;23;20158;-87
2022/03/12 14:19:59;;;;;;;17.53;13.60;;;;;;;;;;6192945;23;20531;-87
2022/03/12 14:22:27;;;;;;;20.70;14.13;;;;;;;;;;6194297;23;20157;-86
2022/03/12 14:24:54;;;;;;;24.03;15.03;;;;;;;;;;6193035;23;20212;-87
2022/03/12 14:27:25;;;;;;;15.20;13.27;;;;;;;;;;6192391;23;20157;-87
2022/03/12 14:29:51;;;;;;;17.80;12.67;;;;;;;;;;6193027;23;20223;-86
2022/03/12 14:32:17;;;;;;;14.57;12.77;;;;;;;;;;6189509;23;20174;-87
2022/03/12 14:34:44;;;;;;;17.60;13.03;;;;;;;;;;6191646;23;20189;-86
2022/03/12 14:37:11;;;;;;;17.77;13.70;;;;;;;;;;6194687;23;20198;-88
2022/03/12 14:39:38;;;;;;;18.33;13.27;;;;;;;;;;6192173;23;20238;-86
2022/03/12 14:42:05;;;;;;;15.37;13.40;;;;;;;;;;6193830;23;20143;-85
2022/03/12 14:44:31;;;;;;;17.57;14.00;;;;;;;;;;6193622;23;20173;-86
2022/03/12 14:46:59;;;;;;;19.37;14.10;;;;;;;;;;6190944;23;20519;-86
2022/03/12 14:49:46;;;;;;;25.80;14.03;;;;;;;;;;6192055;23;20166;-85
2022/03/12 14:52:26;;;;;;;17.80;13.83;;;;;;;;;;6191626;23;20186;-85
2022/03/12 14:54:55;;;;;;;15.83;13.30;;;;;;;;;;6194754;23;20174;-86
2022/03/12 14:57:22;;;;;;;14.83;11.87;;;;;;;;;;6191279;23;20596;-86
2022/03/12 14:59:49;;;;;;;16.13;14.03;;;;;;;;;;6195120;23;20174;-85
2022/03/12 15:02:16;;;;;;;15.67;13.67;;;;;;;;;;6195362;23;20151;-85
2022/03/12 15:04:45;;;;;;;17.90;13.73;;;;;;;;;;6196221;23;20164;-86
2022/03/12 15:07:25;;;;;;;17.43;13.50;;;;;;;;;;6195488;23;20178;-85
2022/03/12 15:09:58;;;;;;;20.20;13.80;;;;;;;;;;6197231;23;20174;-85
2022/03/12 15:12:33;;;;;;;19.07;13.33;;;;;;;;;;6195663;23;20178;-85
2022/03/12 15:15:04;;;;;;;14.70;12.43;;;;;;;;;;6197249;23;20151;-85
2022/03/12 15:17:31;;;;;;;15.63;13.73;;;;;;;;;;6193970;23;20149;-85
2022/03/12 15:20:17;;;;;;;14.90;12.80;;;;;;;;;;6193311;23;20184;-85
2022/03/12 15:22:44;;;;;;;17.03;13.90;;;;;;;;;;6194452;23;20170;-85
2022/03/12 15:25:14;;;;;;;17.37;13.53;;;;;;;;;;6190919;23;20211;-86
2022/03/12 15:27:40;;;;;;;16.83;13.33;;;;;;;;;;6193277;23;20182;-84
2022/03/12 15:30:08;;;;;;;18.60;13.27;;;;;;;;;;6165018;23;20204;-85
2022/03/12 15:32:35;;;;;;;16.57;12.67;;;;;;;;;;6192200;23;20217;-86
2022/03/12 15:35:03;;;;;;;14.97;12.03;;;;;;;;;;6188959;23;20539;-86
2022/03/12 15:37:33;;;;;;;15.83;12.80;;;;;;;;;;6192791;23;20151;-86
2022/03/12 15:40:02;;;;;;;17.33;14.00;;;;;;;;;;6191794;23;20184;-86
2022/03/12 15:42:29;;;;;;;15.53;13.13;;;;;;;;;;6191975;23;20170;-86
2022/03/12 15:44:56;;;;;;;16.07;13.10;;;;;;;;;;6188953;23;20228;-84
2022/03/12 15:47:22;;;;;;;15.90;12.70;;;;;;;;;;6188586;23;20488;-84
2022/03/12 15:49:48;;;;;;;15.37;12.57;;;;;;;;;;6189983;23;20169;-85
2022/03/12 15:52:14;;;;;;;15.13;12.87;;;;;;;;;;6190169;23;20718;-86
2022/03/12 15:54:40;;;;;;;15.50;13.10;;;;;;;;;;6190426;23;20147;-85
2022/03/12 15:57:07;;;;;;;16.10;12.17;;;;;;;;;;6189597;23;20151;-85
2022/03/12 15:59:33;;;;;;;18.13;12.67;;;;;;;;;;6191663;23;20200;-84
2022/03/12 16:01:59;;;;;;;14.63;12.33;;;;;;;;;;6189322;23;20151;-85
2022/03/12 16:04:25;;;;;;;16.43;12.87;;;;;;;;;;6192017;23;20203;-85
2022/03/12 16:06:52;;;;;;;18.10;13.33;;;;;;;;;;6190665;23;20157;-86
2022/03/12 16:09:18;;;;;;;14.60;12.57;;;;;;;;;;6190541;23;20174;-85
2022/03/12 16:11:47;;;;;;;14.43;12.23;;;;;;;;;;6190831;23;20147;-85
2022/03/12 16:14:14;;;;;;;16.33;12.70;;;;;;;;;;6191606;23;20208;-85
2022/03/12 16:16:42;;;;;;;13.43;12.03;;;;;;;;;;6191147;23;20484;-86
2022/03/12 16:19:09;;;;;;;15.10;12.63;;;;;;;;;;6191027;23;20526;-86
2022/03/12 16:21:36;;;;;;;18.97;12.17;;;;;;;;;;6189694;23;20150;-85
2022/03/12 16:24:02;;;;;;;14.87;12.63;;;;;;;;;;6188282;23;20651;-85
2022/03/12 16:26:28;;;;;;;16.40;12.50;;;;;;;;;;6191181;23;20145;-85
2022/03/12 16:28:54;;;;;;;18.07;12.60;;;;;;;;;;6191294;23;20250;-86
2022/03/12 16:31:20;;;;;;;15.87;11.77;;;;;;;;;;6193652;23;20161;-86
2022/03/12 16:33:47;;;;;;;20.67;13.20;;;;;;;;;;6192644;23;20254;-86
2022/03/12 16:36:13;;;;;;;19.00;12.37;;;;;;;;;;6192150;23;20150;-86
2022/03/12 16:38:39;;;;;;;17.57;12.13;;;;;;;;;;6190422;23;20190;-84
2022/03/12 16:41:05;;;;;;;17.87;13.27;;;;;;;;;;6193357;23;20145;-87
2022/03/12 16:43:32;;;;;;;14.77;11.90;;;;;;;;;;6164996;23;20204;-85
2022/03/12 16:46:03;;;;;;;17.40;12.67;;;;;;;;;;6188684;23;20154;-85
2022/03/12 16:48:35;;;;;;;19.23;12.83;;;;;;;;;;6189915;23;20166;-84
2022/03/12 16:51:01;;;;;;;17.47;12.97;;;;;;;;;;6190962;23;20143;-86
2022/03/12 16:53:27;;;;;;;16.47;12.53;;;;;;;;;;6190053;23;20305;-86
2022/03/12 16:55:53;;;;;;;13.63;12.20;;;;;;;;;;6189907;23;20512;-84
2022/03/12 16:58:20;;;;;;;14.47;11.17;;;;;;;;;;6188282;23;20178;-85
2022/03/12 17:00:46;;;;;;;13.10;11.70;;;;;;;;;;6189662;23;20565;-85
2022/03/12 17:03:12;;;;;;;17.77;12.70;;;;;;;;;;6191532;23;20619;-85
2022/03/12 17:05:39;;;;;;;16.37;12.80;;;;;;;;;;6190163;23;20459;-85
2022/03/12 17:08:06;;;;;;;17.57;13.00;;;;;;;;;;6188702;23;20162;-85
2022/03/12 17:10:37;;;;;;;16.07;11.87;;;;;;;;;;6191265;23;20146;-84
2022/03/12 17:13:04;;;;;;;17.27;13.30;;;;;;;;;;6191751;23;20174;-84
2022/03/12 17:15:31;;;;;;;15.80;12.83;;;;;;;;;;6190512;23;20487;-85
2022/03/12 17:17:58;;;;;;;14.97;12.47;;;;;;;;;;6191225;23;20154;-86
2022/03/12 17:20:25;;;;;;;15.60;12.70;;;;;;;;;;6192050;23;20190;-84
2022/03/12 17:22:51;;;;;;;18.63;12.90;;;;;;;;;;6189640;23;20192;-86
2022/03/12 17:25:19;;;;;;;16.93;13.03;;;;;;;;;;6189902;23;20249;-85
2022/03/12 17:27:45;;;;;;;16.77;13.10;;;;;;;;;;6192975;23;20157;-85
2022/03/12 17:30:11;;;;;;;16.53;13.47;;;;;;;;;;6190769;23;20231;-85
2022/03/12 17:32:38;;;;;;;18.30;14.13;;;;;;;;;;6192894;23;20566;-85
2022/03/12 17:35:05;;;;;;;19.47;12.47;;;;;;;;;;6193629;23;20155;-85